createdAt,value
2022-12-13T00:01:13.424Z,-8.00
2022-12-13T00:05:57.120Z,-8.10
2022-12-13T00:10:40.797Z,-8.10
2022-12-13T00:15:24.299Z,-8.20
2022-12-13T00:20:10.132Z,-8.30
2022-12-13T00:24:57.005Z,-8.30
2022-12-13T00:29:40.556Z,-8.30
2022-12-13T00:34:24.259Z,-8.30
2022-12-13T00:39:13.050Z,-8.10
2022-12-13T00:43:56.595Z,-8.10
2022-12-13T00:48:40.484Z,-8.20
2022-12-13T00:53:23.967Z,-8.30
2022-12-13T00:58:08.848Z,-8.40
2022-12-13T01:02:53.921Z,-8.40
2022-12-13T01:07:38.339Z,-8.60
2022-12-13T01:12:21.902Z,-8.60
2022-12-13T01:17:07.578Z,-8.50
2022-12-13T01:21:55.644Z,-8.40
2022-12-13T01:26:39.952Z,-8.60
2022-12-13T01:31:23.429Z,-8.50
2022-12-13T01:36:10.838Z,-8.30
2022-12-13T01:40:58.746Z,-8.40
2022-12-13T01:45:43.344Z,-8.50
2022-12-13T01:50:30.100Z,-8.60
2022-12-13T01:55:17.898Z,-8.80
2022-12-13T02:00:03.581Z,-8.90
2022-12-13T02:04:54.630Z,-8.90
2022-12-13T02:09:38.692Z,-8.70
2022-12-13T02:14:23.509Z,-8.70
2022-12-13T02:19:49.344Z,-8.70
2022-12-13T02:24:58.640Z,-8.70
2022-12-13T02:30:19.738Z,-8.90
2022-12-13T02:35:11.629Z,-8.80
2022-12-13T02:39:59.949Z,-8.70
2022-12-13T02:44:48.158Z,-8.50
2022-12-13T02:49:36.500Z,-8.80
2022-12-13T02:54:21.379Z,-8.90
2022-12-13T02:59:10.260Z,-9.00
2022-12-13T03:04:01.952Z,-9.10
2022-12-13T03:08:51.846Z,-9.20
2022-12-13T03:13:47.855Z,-9.20
2022-12-13T03:18:33.385Z,-9.00
2022-12-13T03:23:17.768Z,-9.10
2022-12-13T03:28:02.398Z,-9.10
2022-12-13T03:32:47.651Z,-9.10
2022-12-13T03:37:31.315Z,-9.10
2022-12-13T03:42:14.794Z,-9.10
2022-12-13T03:46:58.235Z,-9.00
2022-12-13T03:51:45.655Z,-9.00
2022-12-13T03:56:29.426Z,-9.00
2022-12-13T04:01:15.466Z,-9.20
2022-12-13T04:05:58.885Z,-9.10
2022-12-13T04:10:44.203Z,-8.90
2022-12-13T04:15:27.636Z,-8.90
2022-12-13T04:20:12.122Z,-9.00
2022-12-13T04:24:55.563Z,-9.10
2022-12-13T04:29:40.428Z,-8.90
2022-12-13T04:34:26.415Z,-9.00
2022-12-13T04:39:22.352Z,-9.00
2022-12-13T04:44:28.155Z,-9.10
2022-12-13T04:49:12.950Z,-9.00
2022-12-13T04:53:56.477Z,-8.80
2022-12-13T04:58:59.918Z,-8.90
2022-12-13T05:03:43.315Z,-9.00
2022-12-13T05:08:28.685Z,-9.00
2022-12-13T05:13:12.186Z,-8.80
2022-12-13T05:17:56.173Z,-8.90
2022-12-13T05:22:39.730Z,-9.10
2022-12-13T05:27:26.785Z,-9.00
2022-12-13T05:32:11.010Z,-8.80
2022-12-13T05:36:54.486Z,-8.70
2022-12-13T05:41:38.871Z,-8.70
2022-12-13T05:46:23.804Z,-8.70
2022-12-13T05:51:10.785Z,-8.70
2022-12-13T05:55:55.180Z,-8.80
2022-12-13T06:00:39.021Z,-8.80
2022-12-13T06:05:24.608Z,-8.70
2022-12-13T06:10:10.940Z,-8.80
2022-12-13T06:14:54.652Z,-8.90
2022-12-13T06:19:46.835Z,-8.50
2022-12-13T06:24:31.713Z,-8.40
2022-12-13T06:29:24.567Z,-8.40
2022-12-13T06:34:14.795Z,-8.40
2022-12-13T06:39:03.011Z,-8.30
2022-12-13T06:43:49.510Z,-8.20
2022-12-13T06:48:33.426Z,-8.00
2022-12-13T06:53:16.893Z,-8.00
2022-12-13T06:58:00.415Z,-8.00
2022-12-13T07:02:45.771Z,-8.10
2022-12-13T07:07:29.961Z,-8.00
2022-12-13T07:12:13.560Z,-7.80
2022-12-13T07:17:03.359Z,-7.70
2022-12-13T07:21:50.453Z,-7.50
2022-12-13T07:26:34.041Z,-7.30
2022-12-13T07:31:19.358Z,-7.10
2022-12-13T07:36:03.557Z,-6.90
2022-12-13T07:40:48.493Z,-6.70
2022-12-13T07:45:32.189Z,-6.50
2022-12-13T07:50:24.957Z,-6.30
2022-12-13T07:55:10.753Z,-6.10
2022-12-13T07:59:55.631Z,-6.00
2022-12-13T08:04:39.175Z,-6.00
2022-12-13T08:09:23.479Z,-5.80
2022-12-13T08:14:07.504Z,-5.70
2022-12-13T08:18:52.385Z,-5.60
2022-12-13T08:23:46.875Z,-5.50
2022-12-13T08:28:32.077Z,-5.40
2022-12-13T08:33:15.565Z,-5.30
2022-12-13T08:38:01.107Z,-5.30
2022-12-13T08:42:44.844Z,-5.20
2022-12-13T08:47:28.836Z,-5.10
2022-12-13T08:52:12.475Z,-4.90
2022-12-13T08:56:57.413Z,-4.90
2022-12-13T09:01:40.863Z,-4.70
2022-12-13T09:06:24.385Z,-4.50
2022-12-13T09:11:11.293Z,-4.30
2022-12-13T09:16:23.719Z,-4.00
2022-12-13T09:21:10.915Z,-3.80
2022-12-13T09:26:05.954Z,-3.60
2022-12-13T09:30:50.266Z,-3.40
2022-12-13T09:35:35.439Z,-3.30
2022-12-13T09:40:26.002Z,-3.10
2022-12-13T09:45:21.939Z,-3.10
2022-12-13T09:50:15.363Z,-2.90
2022-12-13T09:55:00.740Z,-2.70
2022-12-13T09:59:44.461Z,-2.60
2022-12-13T10:04:30.723Z,-2.50
2022-12-13T10:09:15.814Z,-2.50
2022-12-13T10:14:03.925Z,-2.50
2022-12-13T10:18:47.450Z,-2.30
2022-12-13T10:23:42.674Z,-2.20
2022-12-13T10:28:35.378Z,-2.30
2022-12-13T10:33:26.686Z,-2.60
2022-12-13T10:38:31.707Z,-2.60
2022-12-13T10:43:18.764Z,-2.40
2022-12-13T10:48:04.466Z,-2.40
2022-12-13T10:52:50.051Z,-2.40
2022-12-13T10:57:34.429Z,-2.20
2022-12-13T11:02:35.454Z,-2.40
2022-12-13T11:07:27.218Z,-2.50
2022-12-13T11:12:21.840Z,-2.40
2022-12-13T11:17:11.715Z,-2.20
2022-12-13T11:21:59.457Z,-2.10
2022-12-13T11:26:53.986Z,-2.00
2022-12-13T11:31:47.731Z,-2.10
2022-12-13T11:36:43.228Z,-2.10
2022-12-13T11:41:32.709Z,-2.00
2022-12-13T11:46:21.977Z,-1.80
2022-12-13T11:51:10.132Z,-1.70
2022-12-13T11:56:00.354Z,-1.60
2022-12-13T12:00:48.974Z,-1.60
2022-12-13T12:05:38.270Z,-1.60
2022-12-13T12:10:30.611Z,-1.60
2022-12-13T12:15:26.728Z,-1.50
2022-12-13T12:20:23.853Z,-1.50
2022-12-13T12:25:29.307Z,-1.60
2022-12-13T12:30:23.267Z,-1.80
2022-12-13T12:35:27.434Z,-1.80
2022-12-13T12:41:07.301Z,-1.90
2022-12-13T12:45:57.316Z,-2.00
2022-12-13T12:50:48.759Z,-2.10
2022-12-13T12:55:46.047Z,-2.10
2022-12-13T13:00:37.615Z,-2.20
2022-12-13T13:05:26.900Z,-2.10
2022-12-13T13:10:16.484Z,-2.10
2022-12-13T13:15:47.001Z,-2.00
2022-12-13T13:20:31.975Z,-2.00
2022-12-13T13:25:23.535Z,-2.00
2022-12-13T13:30:11.207Z,-1.90
2022-12-13T13:34:54.718Z,-2.20
2022-12-13T13:40:03.417Z,-2.30
2022-12-13T13:45:19.555Z,-2.40
2022-12-13T13:50:18.025Z,-2.50
2022-12-13T13:55:38.877Z,-2.50
2022-12-13T14:00:24.055Z,-2.40
2022-12-13T14:05:47.931Z,-2.40
2022-12-13T14:10:48.014Z,-2.40
2022-12-13T14:16:12.197Z,-2.50
2022-12-13T14:21:15.296Z,-2.50
2022-12-13T14:26:20.891Z,-2.50
2022-12-13T14:31:04.450Z,-2.60
2022-12-13T14:35:53.679Z,-2.60
2022-12-13T14:40:48.464Z,-2.60
2022-12-13T14:45:36.870Z,-2.60
2022-12-13T14:50:21.146Z,-2.60
2022-12-13T14:55:06.272Z,-2.60
2022-12-13T14:59:52.361Z,-2.60
2022-12-13T15:04:38.079Z,-2.60
2022-12-13T15:09:22.727Z,-2.60
2022-12-13T15:14:12.775Z,-2.50
2022-12-13T15:19:10.988Z,-2.50
2022-12-13T15:23:57.229Z,-2.60
2022-12-13T15:28:45.053Z,-2.60
2022-12-13T15:33:34.413Z,-2.60
2022-12-13T15:38:28.786Z,-2.70
2022-12-13T15:43:19.756Z,-2.70
2022-12-13T15:48:03.327Z,-2.70
2022-12-13T15:52:47.928Z,-2.70
2022-12-13T15:57:33.294Z,-2.80
2022-12-13T16:02:21.843Z,-2.70
2022-12-13T16:07:05.483Z,-2.80
2022-12-13T16:11:53.138Z,-2.80
2022-12-13T16:16:37.039Z,-2.80
2022-12-13T16:21:22.141Z,-2.80
2022-12-13T16:26:09.175Z,-2.80
2022-12-13T16:31:05.616Z,-2.70
2022-12-13T16:35:49.346Z,-2.70
2022-12-13T16:40:35.017Z,-2.70
2022-12-13T16:45:41.091Z,-2.80
2022-12-13T16:50:26.726Z,-2.70
2022-12-13T16:55:11.814Z,-2.80
2022-12-13T16:59:57.489Z,-2.80
2022-12-13T17:04:43.221Z,-2.80
2022-12-13T17:09:32.484Z,-2.80
2022-12-13T17:14:17.418Z,-2.80
2022-12-13T17:19:06.481Z,-2.80
2022-12-13T17:23:50.721Z,-2.80
2022-12-13T17:28:37.324Z,-2.80
2022-12-13T17:33:23.006Z,-2.80
2022-12-13T17:38:10.241Z,-2.70
2022-12-13T17:42:55.881Z,-2.70
2022-12-13T17:47:40.239Z,-2.70
2022-12-13T17:52:24.277Z,-2.80
2022-12-13T17:57:12.089Z,-2.80
2022-12-13T18:01:56.051Z,-2.80
2022-12-13T18:06:41.131Z,-2.80
2022-12-13T18:11:34.146Z,-2.90
2022-12-13T18:16:22.254Z,-2.80
2022-12-13T18:21:11.680Z,-2.80
2022-12-13T18:26:01.619Z,-2.80
2022-12-13T18:30:47.211Z,-2.80
2022-12-13T18:35:33.750Z,-2.70
2022-12-13T18:40:20.685Z,-2.70
2022-12-13T18:45:09.664Z,-2.70
2022-12-13T18:49:55.484Z,-2.70
2022-12-13T18:54:44.080Z,-2.70
2022-12-13T18:59:40.242Z,-2.70
2022-12-13T19:04:30.843Z,-2.70
2022-12-13T19:09:17.522Z,-2.70
2022-12-13T19:14:05.558Z,-2.60
2022-12-13T19:18:52.630Z,-2.60
2022-12-13T19:23:40.634Z,-2.60
2022-12-13T19:28:28.580Z,-2.60
2022-12-13T19:33:15.846Z,-2.50
2022-12-13T19:38:02.352Z,-2.50
2022-12-13T19:42:48.135Z,-2.50
2022-12-13T19:47:33.528Z,-2.50
2022-12-13T19:52:28.513Z,-2.50
2022-12-13T19:57:15.238Z,-2.50
2022-12-13T20:02:00.955Z,-2.50
2022-12-13T20:06:47.160Z,-2.50
2022-12-13T20:11:34.501Z,-2.50
2022-12-13T20:16:21.182Z,-2.50
2022-12-13T20:21:12.493Z,-2.50
2022-12-13T20:26:03.187Z,-2.50
2022-12-13T20:30:51.697Z,-2.60
2022-12-13T20:35:49.595Z,-2.70
2022-12-13T20:40:41.907Z,-2.70
2022-12-13T20:45:27.761Z,-2.60
2022-12-13T20:50:16.814Z,-2.60
2022-12-13T20:55:02.612Z,-2.60
2022-12-13T20:59:48.717Z,-2.60
2022-12-13T21:04:34.424Z,-2.50
2022-12-13T21:09:21.313Z,-2.50
2022-12-13T21:14:11.248Z,-2.50
2022-12-13T21:19:01.702Z,-2.50
2022-12-13T21:23:46.316Z,-2.60
2022-12-13T21:28:32.344Z,-2.50
2022-12-13T21:33:17.156Z,-2.50
2022-12-13T21:38:05.328Z,-2.40
2022-12-13T21:42:50.662Z,-2.40
2022-12-13T21:47:36.215Z,-2.40
2022-12-13T21:52:20.510Z,-2.40
2022-12-13T21:57:23.518Z,-2.30
2022-12-13T22:02:13.662Z,-2.30
2022-12-13T22:06:58.813Z,-2.30
2022-12-13T22:11:42.319Z,-2.30
2022-12-13T22:16:25.824Z,-2.30
2022-12-13T22:21:10.334Z,-2.30
2022-12-13T22:25:55.963Z,-2.20
2022-12-13T22:30:40.964Z,-2.20
2022-12-13T22:35:24.509Z,-2.10
2022-12-13T22:40:09.051Z,-2.10
2022-12-13T22:44:54.080Z,-2.10
2022-12-13T22:49:37.578Z,-2.00
2022-12-13T22:54:21.439Z,-2.10
2022-12-13T22:59:08.891Z,-2.10
2022-12-13T23:03:55.200Z,-2.10
2022-12-13T23:08:43.399Z,-2.10
2022-12-13T23:13:27.865Z,-2.10
2022-12-13T23:18:11.347Z,-2.10
2022-12-13T23:22:56.286Z,-2.10
2022-12-13T23:27:40.183Z,-2.00
2022-12-13T23:32:23.609Z,-2.00
2022-12-13T23:37:09.531Z,-2.00
2022-12-13T23:41:54.441Z,-2.00
2022-12-13T23:46:38.556Z,-2.10
2022-12-13T23:51:22.373Z,-2.00
2022-12-13T23:56:07.405Z,-2.00
